Terminal Aerodrome Forecast
Issued by NWS Northern Indiana

Home | Current Version | Previous Version | Graphics & Text | Print | Product List | Glossary On
Versions: 1 2 3 4 5 6 7 8 9 10 11 12 13 14 15 16 17 18
954
FTUS43 KIWX 210938 AAB
TAFFWA
TAF AMD
KFWA 210938Z 2110/2206 20005KT 1/2SM -DZ FG OVC003
      TEMPO 2110/2113 1/4SM -DZ FG VV002
     FM212000 19008KT 2SM BR OVC006
     FM220200 18005KT 1/2SM -RA FG OVC003=

USA.gov is the U.S. government's official web portal to all federal, state and local government web resources and services.